Delta Billie — WDE8059 — position and weather

sailwx.info

Track history (hours):
 
Tides and Currents Weather Stations Pressure Air Temp Water Temp Dewpoint Dewpoint Depression Visibility Wind Speed Wind Dir Waves Ship Positions

Delta Billie

Owner: Baydelta Maritime, San Francicso, CA. More information available from US FCC via Universal Licensing System and Coast Guard Vessel Documentation Center.

Last reported at 2018-Feb-19 14:00 UTC. Time now 2018-Feb-19 14:23 UTC.
Position N 37°48' W 122°24'.

Length 30 m; draft 5.5 m.

Type: Towing. MMSI: 367401030.

Date/timePositionNaut miles runAvg speedWind from/ knotsBaromVisibWave heightAir tempDewpointWater temp
2018-Feb-19 14:00N 37°48' W 122°24'0 0.0
2018-Feb-19 13:30N 37°48' W 122°24'0 0.0
2018-Feb-19 13:00N 37°48' W 122°24'0 0.0
2018-Feb-19 12:30N 37°48' W 122°24'0 0.0
2018-Feb-19 12:00N 37°48' W 122°24'3 5.6
2018-Feb-19 11:30N 37°48' W 122°20'0 0.2
2018-Feb-19 11:00N 37°48' W 122°21'0 0.2
2018-Feb-19 10:31N 37°48' W 122°21'3 5.2
2018-Feb-19 10:00N 37°48' W 122°24'0 0.0
2018-Feb-19 09:30N 37°48' W 122°24'0 0.0
2018-Feb-19 09:00N 37°48' W 122°24'0 0.0
2018-Feb-19 08:30N 37°48' W 122°24'0 0.0
2018-Feb-19 08:00N 37°48' W 122°24'0 0.0
2018-Feb-19 07:30N 37°48' W 122°24'0 0.0
2018-Feb-19 07:00N 37°48' W 122°24'0 0.0
2018-Feb-19 06:30N 37°48' W 122°24'0 0.0
2018-Feb-19 06:00N 37°48' W 122°24'0 0.0
2018-Feb-19 05:30N 37°48' W 122°24'0 0.6
2018-Feb-19 05:00N 37°48' W 122°24'4 7.3
2018-Feb-19 04:31N 37°48' W 122°19'0 0.1
2018-Feb-19 04:00N 37°48' W 122°19'1 2.5
2018-Feb-19 03:30N 37°48' W 122°17'1 2.4
2018-Feb-19 03:00N 37°48' W 122°19'3 5.3
2018-Feb-19 02:30N 37°48' W 122°22'1 2.9
2018-Feb-19 02:00N 37°48' W 122°24'0 0.0
2018-Feb-19 01:30N 37°48' W 122°24'0 0.0
2018-Feb-19 01:00N 37°48' W 122°24'0 0.0
2018-Feb-19 00:30N 37°48' W 122°24'0 0.0
2018-Feb-19 00:00N 37°48' W 122°24'0 0.0
2018-Feb-18 23:30N 37°48' W 122°24'0 0.0
2018-Feb-18 23:00N 37°48' W 122°24'0 0.0
2018-Feb-18 22:30N 37°48' W 122°24'0 0.0
2018-Feb-18 22:00N 37°48' W 122°24'0 0.0
2018-Feb-18 21:30N 37°48' W 122°24'0 0.0
2018-Feb-18 21:00N 37°48' W 122°24'0 0.0
2018-Feb-18 20:30N 37°48' W 122°24'0 0.0
2018-Feb-18 20:00N 37°48' W 122°24'0 0.0
2018-Feb-18 19:30N 37°48' W 122°24'0 0.0
2018-Feb-18 19:00N 37°48' W 122°24'0 0.0
2018-Feb-18 18:30N 37°48' W 122°24'0 0.0
2018-Feb-18 18:00N 37°48' W 122°24'0 0.0
2018-Feb-18 17:30N 37°48' W 122°24'0 0.0
2018-Feb-18 17:00N 37°48' W 122°24'0 0.0
2018-Feb-18 16:30N 37°48' W 122°24'0 0.0
2018-Feb-18 16:00N 37°48' W 122°24'0 0.0
2018-Feb-18 15:30N 37°48' W 122°24'0 0.0
2018-Feb-18 15:00N 37°48' W 122°24'3 5.6
2018-Feb-18 14:31N 37°48' W 122°20'0 0.5
2018-Feb-18 14:00N 37°49' W 122°20'0 0.3
2018-Feb-18 13:31N 37°49' W 122°20'2 4.4
2018-Feb-18 13:00N 37°49' W 122°23'2 3.6
2018-Feb-18 12:30N 37°48' W 122°21'0 0.0
2018-Feb-18 12:00N 37°48' W 122°21'0 0.0
2018-Feb-18 11:30N 37°48' W 122°21'0 0.6
2018-Feb-18 11:00N 37°49' W 122°20'1 2.1
2018-Feb-18 10:30N 37°48' W 122°22'2 3.7
2018-Feb-18 10:00N 37°48' W 122°24'0 0.0
2018-Feb-18 09:30N 37°48' W 122°24'0 0.0
2018-Feb-18 09:00N 37°48' W 122°24'0 0.0
2018-Feb-18 08:30N 37°48' W 122°24'0 0.0
2018-Feb-18 08:00N 37°48' W 122°24'0 0.0
2018-Feb-18 07:30N 37°48' W 122°24'0 0.0
2018-Feb-18 07:00N 37°48' W 122°24'0 0.0
2018-Feb-18 06:30N 37°48' W 122°24'0 0.0
2018-Feb-18 06:00N 37°48' W 122°24'0 0.0
2018-Feb-18 05:30N 37°48' W 122°24'0 0.0
2018-Feb-18 05:00N 37°48' W 122°24'0 0.0
2018-Feb-18 04:30N 37°48' W 122°24'0 0.0
2018-Feb-18 04:00N 37°48' W 122°24'0 0.0
2018-Feb-18 03:30N 37°48' W 122°24'0 0.0
2018-Feb-18 03:00N 37°48' W 122°24'0 0.0
2018-Feb-18 02:30N 37°48' W 122°24'0 0.0
2018-Feb-18 02:00N 37°48' W 122°24'0 0.0
2018-Feb-18 01:30N 37°48' W 122°24'0 0.0
2018-Feb-18 01:00N 37°48' W 122°24'0 0.0
2018-Feb-18 00:30N 37°48' W 122°24'0 0.0
2018-Feb-18 00:00N 37°48' W 122°24'0 0.0
2018-Feb-17 23:30N 37°48' W 122°24'0 0.0
2018-Feb-17 23:00N 37°48' W 122°24'0 0.0
2018-Feb-17 22:30N 37°48' W 122°24'0 0.0
2018-Feb-17 22:00N 37°48' W 122°24'0 0.0
2018-Feb-17 21:30N 37°48' W 122°24'0 0.0
2018-Feb-17 21:00N 37°48' W 122°24'0 0.0
2018-Feb-17 20:30N 37°48' W 122°24'0 0.0
2018-Feb-17 20:00N 37°48' W 122°24'0 0.0
2018-Feb-17 19:30N 37°48' W 122°24'0 0.0
2018-Feb-17 19:00N 37°48' W 122°24'0 0.0
2018-Feb-17 18:30N 37°48' W 122°24'0 0.0
2018-Feb-17 18:00N 37°48' W 122°24'0 0.0
2018-Feb-17 17:30N 37°48' W 122°24'0 0.0
2018-Feb-17 17:00N 37°48' W 122°24'0 0.0
2018-Feb-17 16:30N 37°48' W 122°24'0 0.1
2018-Feb-17 16:00N 37°48' W 122°24'0 0.1
2018-Feb-17 15:30N 37°48' W 122°24'3 5.7
2018-Feb-17 15:00N 37°48' W 122°20'1 2.0
2018-Feb-17 14:30N 37°48' W 122°19'2 3.3
2018-Feb-17 14:00N 37°48' W 122°21'2 3.6
2018-Feb-17 13:30N 37°48' W 122°23'0 0.8
2018-Feb-17 13:00N 37°48' W 122°24'0 0.0
2018-Feb-17 12:30N 37°48' W 122°24'0 0.0
2018-Feb-17 12:00N 37°48' W 122°24'0 0.0
2018-Feb-17 11:30N 37°48' W 122°24'0 0.0
2018-Feb-17 11:00N 37°48' W 122°24'0 0.0
2018-Feb-17 10:30N 37°48' W 122°24'0 0.0
2018-Feb-17 10:00N 37°48' W 122°24'0 0.0
2018-Feb-17 09:30N 37°48' W 122°24'0 0.0
2018-Feb-17 09:00N 37°48' W 122°24'0 0.0
2018-Feb-17 08:30N 37°48' W 122°24'0 0.0
2018-Feb-17 08:00N 37°48' W 122°24'0 0.0
2018-Feb-17 07:30N 37°48' W 122°24'0 0.0
2018-Feb-17 07:00N 37°48' W 122°24'0 0.0
2018-Feb-17 06:30N 37°48' W 122°24'0 0.0
2018-Feb-17 06:00N 37°48' W 122°24'0 0.0
2018-Feb-17 05:30N 37°48' W 122°24'0 0.0
2018-Feb-17 05:00N 37°48' W 122°24'0 0.0
2018-Feb-17 04:30N 37°48' W 122°24'0 0.0
2018-Feb-17 04:00N 37°48' W 122°24'0 0.0
2018-Feb-17 03:29N 37°48' W 122°24'0 0.0
2018-Feb-17 03:00N 37°48' W 122°24'2 3.0
2018-Feb-17 02:30N 37°48' W 122°22'1 2.7
2018-Feb-17 02:00N 37°48' W 122°20'1 1.5
2018-Feb-17 01:30N 37°49' W 122°20'1 1.0
2018-Feb-17 01:00N 37°49' W 122°20'2 3.8
2018-Feb-17 00:30N 37°48' W 122°22'1 2.4
2018-Feb-17 00:00N 37°48' W 122°24'0 0.0
2018-Feb-16 23:30N 37°48' W 122°24'0 0.0
2018-Feb-16 23:00N 37°48' W 122°24'2 4.3
2018-Feb-16 22:30N 37°47' W 122°22'0 0.9
2018-Feb-16 22:00N 37°47' W 122°21'5 9.7
2018-Feb-16 21:30N 37°51' W 122°24'4 8.8
2018-Feb-16 21:00N 37°55' W 122°25'0 0.3
2018-Feb-16 20:30N 37°56' W 122°25'1 1.8
2018-Feb-16 20:01N 37°56' W 122°26'5 9.2
2018-Feb-16 19:30N 38°01' W 122°24'5 9.6
2018-Feb-16 19:00N 38°03' W 122°19'5 9.9
2018-Feb-16 18:30N 38°04' W 122°13'4 7.1
2018-Feb-16 17:59N 38°02' W 122°08'0 0.0
2018-Feb-16 17:30N 38°02' W 122°08'0 0.0
2018-Feb-16 17:00N 38°02' W 122°08'0 0.0
2018-Feb-16 15:51N 38°02' W 122°08'0 0.0
2018-Feb-16 14:17N 38°02' W 122°08'0 0.0
2018-Feb-16 13:55N 38°02' W 122°08'0 0.0
2018-Feb-16 13:30N 38°02' W 122°08'0 0.0
2018-Feb-16 11:18N 38°02' W 122°08'0 0.0
2018-Feb-16 09:53N 38°02' W 122°08'0 0.2
2018-Feb-16 08:18N 38°02' W 122°08'1 4.1
2018-Feb-16 08:00N 38°02' W 122°10'1 2.4
2018-Feb-16 07:30N 38°03' W 122°11'611.0
2018-Feb-16 06:59N 38°03' W 122°18'611.2
2018-Feb-16 06:29N 38°00' W 122°24'511.3
2018-Feb-16 06:00N 37°55' W 122°25'1 1.2
2018-Feb-16 05:30N 37°56' W 122°25'4 7.5
2018-Feb-16 05:00N 37°52' W 122°24'4 7.4
2018-Feb-16 04:30N 37°48' W 122°24'0 0.0
2018-Feb-16 04:00N 37°48' W 122°24'0 0.0
2018-Feb-16 03:30N 37°48' W 122°24'0 0.0
2018-Feb-16 03:00N 37°48' W 122°24'0 0.0
2018-Feb-16 02:30N 37°48' W 122°24'0 0.0
2018-Feb-16 02:00N 37°48' W 122°24'0 0.0
2018-Feb-16 01:30N 37°48' W 122°24'0 0.0
2018-Feb-16 01:00N 37°48' W 122°24'0 0.0
2018-Feb-16 00:30N 37°48' W 122°24'0 0.0
2018-Feb-16 00:00N 37°48' W 122°24'0 0.0
2018-Feb-15 23:30N 37°48' W 122°24'3 6.7
2018-Feb-15 23:00N 37°51' W 122°25'4 7.7
2018-Feb-15 22:30N 37°55' W 122°25'0 0.3
2018-Feb-15 22:00N 37°55' W 122°25'0 0.2
2018-Feb-15 21:30N 37°55' W 122°25'2 3.6
2018-Feb-15 21:00N 37°54' W 122°25'4 8.4
2018-Feb-15 20:30N 37°50' W 122°28'3 6.1
2018-Feb-15 20:00N 37°48' W 122°31'1 1.9
2018-Feb-15 19:30N 37°49' W 122°31'5 9.0
2018-Feb-15 19:00N 37°52' W 122°27'4 7.5
2018-Feb-15 18:29N 37°56' W 122°25'0 0.0
2018-Feb-15 18:00N 37°56' W 122°25'0 0.0
2018-Feb-15 17:30N 37°56' W 122°25'0 0.0
2018-Feb-15 17:00N 37°56' W 122°25'0 0.0
2018-Feb-15 16:30N 37°56' W 122°25'0 0.0
2018-Feb-15 16:00N 37°56' W 122°25'0 0.0
2018-Feb-15 15:30N 37°56' W 122°25'0 0.0
2018-Feb-15 15:00N 37°56' W 122°25'0 0.0
2018-Feb-15 14:30N 37°56' W 122°25'0 0.0
2018-Feb-15 14:00N 37°56' W 122°25'0 0.0
2018-Feb-15 13:30N 37°56' W 122°25'0 0.0
2018-Feb-15 13:00N 37°56' W 122°25'2 4.6
2018-Feb-15 12:30N 37°58' W 122°26'5 9.7
2018-Feb-15 12:00N 38°02' W 122°22'5 9.9
2018-Feb-15 11:30N 38°03' W 122°17'1 1.4
2018-Feb-15 11:00N 38°03' W 122°16'1 1.7
2018-Feb-15 10:29N 38°03' W 122°15'0 0.0
2018-Feb-15 09:52N 38°03' W 122°15'0 0.0
2018-Feb-15 09:30N 38°03' W 122°15'0 0.0
2018-Feb-15 08:43N 38°03' W 122°15'0 0.0
2018-Feb-15 08:30N 38°03' W 122°15'0 0.0
2018-Feb-15 08:00N 38°03' W 122°15'0 0.0
2018-Feb-15 07:30N 38°03' W 122°15'0 0.0
2018-Feb-15 06:59N 38°03' W 122°15'0 0.0
2018-Feb-15 06:29N 38°03' W 122°15'0 0.0
2018-Feb-15 06:00N 38°03' W 122°15'0 0.0
2018-Feb-15 03:10N 38°03' W 122°15'1 4.7
2018-Feb-15 03:00N 38°04' W 122°16'7 7.7
2018-Feb-15 02:02N 38°00' W 122°24'1 8.4
2018-Feb-15 01:57N 37°60' W 122°25'3 7.9
2018-Feb-15 01:31N 37°56' W 122°26'4 8.3
2018-Feb-15 01:00N 37°52' W 122°24'5 9.7
2018-Feb-15 00:30N 37°48' W 122°21'2 3.6
2018-Feb-15 00:00N 37°48' W 122°19'1 1.1
2018-Feb-14 23:31N 37°48' W 122°18'0 0.1
2018-Feb-14 23:00N 37°48' W 122°18'2 4.0
2018-Feb-14 22:30N 37°48' W 122°20'3 5.0
2018-Feb-14 22:00N 37°48' W 122°24'0 0.7
2018-Feb-14 21:30N 37°48' W 122°24'0 0.0
2018-Feb-14 21:00N 37°48' W 122°24'0 0.0
2018-Feb-14 20:30N 37°48' W 122°24'0 0.0
2018-Feb-14 20:00N 37°48' W 122°24'0 0.0
2018-Feb-14 19:30N 37°48' W 122°24'0 0.0
2018-Feb-14 19:00N 37°48' W 122°24'0 0.0
2018-Feb-14 18:30N 37°48' W 122°24'0 0.0
2018-Feb-14 18:00N 37°48' W 122°24'0 0.0
2018-Feb-14 17:30N 37°48' W 122°24'0 0.0
2018-Feb-14 17:00N 37°48' W 122°24'0 0.0
2018-Feb-14 16:30N 37°48' W 122°24'2 4.4
2018-Feb-14 16:00N 37°48' W 122°21'2 3.5
2018-Feb-14 15:31N 37°48' W 122°19'1 1.4
2018-Feb-14 15:00N 37°48' W 122°18'1 1.4
2018-Feb-14 14:30N 37°48' W 122°17'1 2.5
2018-Feb-14 14:00N 37°48' W 122°19'2 4.9
2018-Feb-14 13:30N 37°48' W 122°22'1 2.2
2018-Feb-14 13:00N 37°49' W 122°23'2 3.2
2018-Feb-14 12:30N 37°50' W 122°24'4 8.2
2018-Feb-14 12:00N 37°54' W 122°25'3 5.5
2018-Feb-14 11:30N 37°55' W 122°22'1 1.1
2018-Feb-14 11:00N 37°55' W 122°22'1 2.2
2018-Feb-14 10:30N 37°54' W 122°23'5 9.8
2018-Feb-14 10:00N 37°59' W 122°26'611.0
2018-Feb-14 09:30N 38°03' W 122°20'510.2
2018-Feb-14 09:00N 38°04' W 122°14'5 9.0
2018-Feb-14 08:29N 38°02' W 122°09'0 0.2
2018-Feb-14 06:25N 38°02' W 122°08'0 0.0
2018-Feb-14 04:26N 38°02' W 122°08'0 0.4
2018-Feb-14 03:47N 38°02' W 122°08'0 1.3
2018-Feb-14 03:24N 38°02' W 122°07'3 3.3
2018-Feb-14 02:37N 38°03' W 122°11'1 8.5
2018-Feb-14 02:30N 38°03' W 122°12'5 7.7
2018-Feb-14 01:53N 38°03' W 122°18'3 7.9
2018-Feb-14 01:27N 38°02' W 122°22'4 8.1
2018-Feb-14 01:00N 37°60' W 122°25'4 7.4
2018-Feb-14 00:31N 37°56' W 122°26'3 6.3
2018-Feb-14 00:01N 37°55' W 122°22'1 1.1
2018-Feb-13 23:30N 37°55' W 122°22'0 0.0
2018-Feb-13 23:00N 37°55' W 122°22'3 6.1
2018-Feb-13 22:30N 37°56' W 122°26'612.8
2018-Feb-13 22:00N 38°02' W 122°22'612.5
2018-Feb-13 21:29N 38°04' W 122°14'5 0.3
2018-Feb-13 05:13N 38°02' W 122°08'1 1.4
2018-Feb-13 04:12N 38°02' W 122°10'1 0.6
2018-Feb-13 02:34N 38°03' W 122°10'0 5.9
2018-Feb-13 02:30N 38°03' W 122°11'3 6.7
2018-Feb-13 02:00N 38°04' W 122°15'4 7.8
2018-Feb-13 01:29N 38°03' W 122°20'4 8.1
2018-Feb-13 01:00N 38°01' W 122°24'4 8.1
2018-Feb-13 00:30N 37°57' W 122°26'4 7.8
2018-Feb-13 00:00N 37°54' W 122°22'1 2.1
2018-Feb-12 23:30N 37°55' W 122°22'0 0.6
2018-Feb-12 23:01N 37°55' W 122°22'2 3.6
2018-Feb-12 22:31N 37°54' W 122°24'1 1.4
2018-Feb-12 22:01N 37°55' W 122°25'0 0.5
2018-Feb-12 21:30N 37°55' W 122°25'0 0.4
2018-Feb-12 21:00N 37°55' W 122°25'4 8.6
2018-Feb-12 20:31N 37°60' W 122°25'510.7
2018-Feb-12 20:00N 38°03' W 122°20'5 9.8
2018-Feb-12 19:30N 38°04' W 122°14'5 0.4
2018-Feb-12 06:09N 38°02' W 122°07'0 0.0
2018-Feb-12 06:00N 38°02' W 122°07'1 0.1
2018-Feb-11 18:00N 38°02' W 122°08'4 6.7
2018-Feb-11 17:23N 38°04' W 122°13'4 9.3
2018-Feb-11 16:58N 38°03' W 122°18'5 9.6
2018-Feb-11 16:25N 38°01' W 122°24'510.8
2018-Feb-11 15:57N 37°56' W 122°27'510.7
2018-Feb-11 15:30N 37°52' W 122°25'5 9.5
2018-Feb-11 15:00N 37°49' W 122°30'1 2.7
2018-Feb-11 14:28N 37°49' W 122°31'2 4.1
2018-Feb-11 14:00N 37°49' W 122°29'4 7.5
2018-Feb-11 13:31N 37°49' W 122°24'1 1.2
2018-Feb-11 13:00N 37°48' W 122°24'0 0.0
2018-Feb-11 12:30N 37°48' W 122°24'0 0.0
2018-Feb-11 12:00N 37°48' W 122°24'0 0.0
2018-Feb-11 11:30N 37°48' W 122°24'0 0.0
2018-Feb-11 11:00N 37°48' W 122°24'0 0.0
2018-Feb-11 10:30N 37°48' W 122°24'0 0.0
2018-Feb-11 10:00N 37°48' W 122°24'0 0.0
2018-Feb-11 09:30N 37°48' W 122°24'0 0.0
2018-Feb-11 09:00N 37°48' W 122°24'0 0.0
2018-Feb-11 08:30N 37°48' W 122°24'0 0.0
2018-Feb-11 08:00N 37°48' W 122°24'0 0.0
2018-Feb-11 07:30N 37°48' W 122°24'0 0.0
2018-Feb-11 07:00N 37°48' W 122°24'0 0.0
2018-Feb-11 06:30N 37°48' W 122°24'0 0.0
2018-Feb-11 06:00N 37°48' W 122°24'0 0.0
2018-Feb-11 05:30N 37°48' W 122°24'1 1.5
2018-Feb-11 05:00N 37°49' W 122°24'510.3
2018-Feb-11 04:30N 37°54' W 122°25'1 2.9
2018-Feb-11 04:00N 37°55' W 122°25'0 0.1
2018-Feb-11 03:30N 37°55' W 122°25'0 0.1
2018-Feb-11 02:40N 37°55' W 122°25'0 0.8
2018-Feb-11 02:30N 37°55' W 122°25'2 4.2
2018-Feb-11 02:00N 37°54' W 122°22'1 1.7
2018-Feb-11 01:30N 37°55' W 122°22'0 0.0
2018-Feb-11 01:00N 37°55' W 122°22'0 0.0
2018-Feb-11 00:30N 37°55' W 122°22'0 0.0
2018-Feb-11 00:00N 37°55' W 122°22'0 0.0
2018-Feb-10 23:30N 37°55' W 122°22'0 0.0
2018-Feb-10 23:00N 37°55' W 122°22'0 0.0
2018-Feb-10 22:29N 37°55' W 122°22'0 0.0
2018-Feb-10 22:00N 37°55' W 122°22'0 0.0
2018-Feb-10 21:29N 37°55' W 122°22'1 2.4
2018-Feb-10 21:00N 37°54' W 122°23'4 8.9
2018-Feb-10 20:30N 37°52' W 122°27'4 7.3
2018-Feb-10 20:00N 37°49' W 122°31'2 4.6
2018-Feb-10 19:30N 37°50' W 122°28'4 7.7
2018-Feb-10 19:00N 37°53' W 122°26'510.0
2018-Feb-10 18:28N 37°58' W 122°26'4 9.7
2018-Feb-10 18:00N 38°02' W 122°23'4 8.2
2018-Feb-10 17:30N 38°03' W 122°18'4 7.2
2018-Feb-10 17:00N 38°04' W 122°13'4 6.3
2018-Feb-10 16:24N 38°02' W 122°09'3 3.2
2018-Feb-10 15:24N 38°03' W 122°05'2 0.4
2018-Feb-10 09:36N 38°02' W 122°08'0 0.1
2018-Feb-10 09:29N 38°02' W 122°08'1 1.2
2018-Feb-10 09:00N 38°02' W 122°08'1 1.1
2018-Feb-10 08:30N 38°02' W 122°08'0 0.2
2018-Feb-10 07:31N 38°02' W 122°08'0 0.1
2018-Feb-10 07:28N 38°02' W 122°08'0 0.0
2018-Feb-10 06:20N 38°02' W 122°08'0 0.0
2018-Feb-10 05:59N 38°02' W 122°08'0 0.0
2018-Feb-10 05:28N 38°02' W 122°08'0 0.0
2018-Feb-10 04:50N 38°02' W 122°08'0 0.0
2018-Feb-10 04:25N 38°02' W 122°08'0 0.0
2018-Feb-10 03:26N 38°02' W 122°08'0 0.0
2018-Feb-10 02:42N 38°02' W 122°08'0 0.0
2018-Feb-10 02:30N 38°02' W 122°08'0 0.0
2018-Feb-10 00:43N 38°02' W 122°08'0 1.2
2018-Feb-10 00:30N 38°02' W 122°08'0 0.1
2018-Feb-09 21:00N 38°02' W 122°08'0 0.0
2018-Feb-09 20:30N 38°02' W 122°08'0 0.0
2018-Feb-09 20:00N 38°02' W 122°08'0 0.4
2018-Feb-09 19:00N 38°02' W 122°08'  
Track history (hours):
 
Tides and Currents Weather Stations Pressure Air Temp Water Temp Dewpoint Dewpoint Depression Visibility Wind Speed Wind Dir Waves Ship Positions

Delta Billie

Owner: Baydelta Maritime, San Francicso, CA. More information available from US FCC via Universal Licensing System and Coast Guard Vessel Documentation Center.

Last reported at 2018-Feb-19 14:00 UTC. Time now 2018-Feb-19 14:23 UTC.
Position N 37°48' W 122°24'.

Length 30 m; draft 5.5 m.

Type: Towing. MMSI: 367401030.

Date/timePositionNaut miles runAvg speedWind from/ knotsBaromVisibWave heightAir tempDewpointWater temp
2018-Feb-19 14:00N 37°48' W 122°24'0 0.0
2018-Feb-19 13:30N 37°48' W 122°24'0 0.0
2018-Feb-19 13:00N 37°48' W 122°24'0 0.0
2018-Feb-19 12:30N 37°48' W 122°24'0 0.0
2018-Feb-19 12:00N 37°48' W 122°24'3 5.6
2018-Feb-19 11:30N 37°48' W 122°20'0 0.2
2018-Feb-19 11:00N 37°48' W 122°21'0 0.2
2018-Feb-19 10:31N 37°48' W 122°21'3 5.2
2018-Feb-19 10:00N 37°48' W 122°24'0 0.0
2018-Feb-19 09:30N 37°48' W 122°24'0 0.0
2018-Feb-19 09:00N 37°48' W 122°24'0 0.0
2018-Feb-19 08:30N 37°48' W 122°24'0 0.0
2018-Feb-19 08:00N 37°48' W 122°24'0 0.0
2018-Feb-19 07:30N 37°48' W 122°24'0 0.0
2018-Feb-19 07:00N 37°48' W 122°24'0 0.0
2018-Feb-19 06:30N 37°48' W 122°24'0 0.0
2018-Feb-19 06:00N 37°48' W 122°24'0 0.0
2018-Feb-19 05:30N 37°48' W 122°24'0 0.6
2018-Feb-19 05:00N 37°48' W 122°24'4 7.3
2018-Feb-19 04:31N 37°48' W 122°19'0 0.1
2018-Feb-19 04:00N 37°48' W 122°19'1 2.5
2018-Feb-19 03:30N 37°48' W 122°17'1 2.4
2018-Feb-19 03:00N 37°48' W 122°19'3 5.3
2018-Feb-19 02:30N 37°48' W 122°22'1 2.9
2018-Feb-19 02:00N 37°48' W 122°24'0 0.0
2018-Feb-19 01:30N 37°48' W 122°24'0 0.0
2018-Feb-19 01:00N 37°48' W 122°24'0 0.0
2018-Feb-19 00:30N 37°48' W 122°24'0 0.0
2018-Feb-19 00:00N 37°48' W 122°24'0 0.0
2018-Feb-18 23:30N 37°48' W 122°24'0 0.0
2018-Feb-18 23:00N 37°48' W 122°24'0 0.0
2018-Feb-18 22:30N 37°48' W 122°24'0 0.0
2018-Feb-18 22:00N 37°48' W 122°24'0 0.0
2018-Feb-18 21:30N 37°48' W 122°24'0 0.0
2018-Feb-18 21:00N 37°48' W 122°24'0 0.0
2018-Feb-18 20:30N 37°48' W 122°24'0 0.0
2018-Feb-18 20:00N 37°48' W 122°24'0 0.0
2018-Feb-18 19:30N 37°48' W 122°24'0 0.0
2018-Feb-18 19:00N 37°48' W 122°24'0 0.0
2018-Feb-18 18:30N 37°48' W 122°24'0 0.0
2018-Feb-18 18:00N 37°48' W 122°24'0 0.0
2018-Feb-18 17:30N 37°48' W 122°24'0 0.0
2018-Feb-18 17:00N 37°48' W 122°24'0 0.0
2018-Feb-18 16:30N 37°48' W 122°24'0 0.0
2018-Feb-18 16:00N 37°48' W 122°24'0 0.0
2018-Feb-18 15:30N 37°48' W 122°24'0 0.0
2018-Feb-18 15:00N 37°48' W 122°24'3 5.6
2018-Feb-18 14:31N 37°48' W 122°20'0 0.5
2018-Feb-18 14:00N 37°49' W 122°20'0 0.3
2018-Feb-18 13:31N 37°49' W 122°20'2 4.4
2018-Feb-18 13:00N 37°49' W 122°23'2 3.6
2018-Feb-18 12:30N 37°48' W 122°21'0 0.0
2018-Feb-18 12:00N 37°48' W 122°21'0 0.0
2018-Feb-18 11:30N 37°48' W 122°21'0 0.6
2018-Feb-18 11:00N 37°49' W 122°20'1 2.1
2018-Feb-18 10:30N 37°48' W 122°22'2 3.7
2018-Feb-18 10:00N 37°48' W 122°24'0 0.0
2018-Feb-18 09:30N 37°48' W 122°24'0 0.0
2018-Feb-18 09:00N 37°48' W 122°24'0 0.0
2018-Feb-18 08:30N 37°48' W 122°24'0 0.0
2018-Feb-18 08:00N 37°48' W 122°24'0 0.0
2018-Feb-18 07:30N 37°48' W 122°24'0 0.0
2018-Feb-18 07:00N 37°48' W 122°24'0 0.0
2018-Feb-18 06:30N 37°48' W 122°24'0 0.0
2018-Feb-18 06:00N 37°48' W 122°24'0 0.0
2018-Feb-18 05:30N 37°48' W 122°24'0 0.0
2018-Feb-18 05:00N 37°48' W 122°24'0 0.0
2018-Feb-18 04:30N 37°48' W 122°24'0 0.0
2018-Feb-18 04:00N 37°48' W 122°24'0 0.0
2018-Feb-18 03:30N 37°48' W 122°24'0 0.0
2018-Feb-18 03:00N 37°48' W 122°24'0 0.0
2018-Feb-18 02:30N 37°48' W 122°24'0 0.0
2018-Feb-18 02:00N 37°48' W 122°24'0 0.0
2018-Feb-18 01:30N 37°48' W 122°24'0 0.0
2018-Feb-18 01:00N 37°48' W 122°24'0 0.0
2018-Feb-18 00:30N 37°48' W 122°24'0 0.0
2018-Feb-18 00:00N 37°48' W 122°24'0 0.0
2018-Feb-17 23:30N 37°48' W 122°24'0 0.0
2018-Feb-17 23:00N 37°48' W 122°24'0 0.0
2018-Feb-17 22:30N 37°48' W 122°24'0 0.0
2018-Feb-17 22:00N 37°48' W 122°24'0 0.0
2018-Feb-17 21:30N 37°48' W 122°24'0 0.0
2018-Feb-17 21:00N 37°48' W 122°24'0 0.0
2018-Feb-17 20:30N 37°48' W 122°24'0 0.0
2018-Feb-17 20:00N 37°48' W 122°24'0 0.0
2018-Feb-17 19:30N 37°48' W 122°24'0 0.0
2018-Feb-17 19:00N 37°48' W 122°24'0 0.0
2018-Feb-17 18:30N 37°48' W 122°24'0 0.0
2018-Feb-17 18:00N 37°48' W 122°24'0 0.0
2018-Feb-17 17:30N 37°48' W 122°24'0 0.0
2018-Feb-17 17:00N 37°48' W 122°24'0 0.0
2018-Feb-17 16:30N 37°48' W 122°24'0 0.1
2018-Feb-17 16:00N 37°48' W 122°24'0 0.1
2018-Feb-17 15:30N 37°48' W 122°24'3 5.7
2018-Feb-17 15:00N 37°48' W 122°20'1 2.0
2018-Feb-17 14:30N 37°48' W 122°19'2 3.3
2018-Feb-17 14:00N 37°48' W 122°21'2 3.6
2018-Feb-17 13:30N 37°48' W 122°23'0 0.8
2018-Feb-17 13:00N 37°48' W 122°24'0 0.0
2018-Feb-17 12:30N 37°48' W 122°24'0 0.0
2018-Feb-17 12:00N 37°48' W 122°24'0 0.0
2018-Feb-17 11:30N 37°48' W 122°24'0 0.0
2018-Feb-17 11:00N 37°48' W 122°24'0 0.0
2018-Feb-17 10:30N 37°48' W 122°24'0 0.0
2018-Feb-17 10:00N 37°48' W 122°24'0 0.0
2018-Feb-17 09:30N 37°48' W 122°24'0 0.0
2018-Feb-17 09:00N 37°48' W 122°24'0 0.0
2018-Feb-17 08:30N 37°48' W 122°24'0 0.0
2018-Feb-17 08:00N 37°48' W 122°24'0 0.0
2018-Feb-17 07:30N 37°48' W 122°24'0 0.0
2018-Feb-17 07:00N 37°48' W 122°24'0 0.0
2018-Feb-17 06:30N 37°48' W 122°24'0 0.0
2018-Feb-17 06:00N 37°48' W 122°24'0 0.0
2018-Feb-17 05:30N 37°48' W 122°24'0 0.0
2018-Feb-17 05:00N 37°48' W 122°24'0 0.0
2018-Feb-17 04:30N 37°48' W 122°24'0 0.0
2018-Feb-17 04:00N 37°48' W 122°24'0 0.0
2018-Feb-17 03:29N 37°48' W 122°24'0 0.0
2018-Feb-17 03:00N 37°48' W 122°24'2 3.0
2018-Feb-17 02:30N 37°48' W 122°22'1 2.7
2018-Feb-17 02:00N 37°48' W 122°20'1 1.5
2018-Feb-17 01:30N 37°49' W 122°20'1 1.0
2018-Feb-17 01:00N 37°49' W 122°20'2 3.8
2018-Feb-17 00:30N 37°48' W 122°22'1 2.4
2018-Feb-17 00:00N 37°48' W 122°24'0 0.0
2018-Feb-16 23:30N 37°48' W 122°24'0 0.0
2018-Feb-16 23:00N 37°48' W 122°24'2 4.3
2018-Feb-16 22:30N 37°47' W 122°22'0 0.9
2018-Feb-16 22:00N 37°47' W 122°21'5 9.7
2018-Feb-16 21:30N 37°51' W 122°24'4 8.8
2018-Feb-16 21:00N 37°55' W 122°25'0 0.3
2018-Feb-16 20:30N 37°56' W 122°25'1 1.8
2018-Feb-16 20:01N 37°56' W 122°26'5 9.2
2018-Feb-16 19:30N 38°01' W 122°24'5 9.6
2018-Feb-16 19:00N 38°03' W 122°19'5 9.9
2018-Feb-16 18:30N 38°04' W 122°13'4 7.1
2018-Feb-16 17:59N 38°02' W 122°08'0 0.0
2018-Feb-16 17:30N 38°02' W 122°08'0 0.0
2018-Feb-16 17:00N 38°02' W 122°08'0 0.0
2018-Feb-16 15:51N 38°02' W 122°08'0 0.0
2018-Feb-16 14:17N 38°02' W 122°08'0 0.0
2018-Feb-16 13:55N 38°02' W 122°08'0 0.0
2018-Feb-16 13:30N 38°02' W 122°08'0 0.0
2018-Feb-16 11:18N 38°02' W 122°08'0 0.0
2018-Feb-16 09:53N 38°02' W 122°08'0 0.2
2018-Feb-16 08:18N 38°02' W 122°08'1 4.1
2018-Feb-16 08:00N 38°02' W 122°10'1 2.4
2018-Feb-16 07:30N 38°03' W 122°11'611.0
2018-Feb-16 06:59N 38°03' W 122°18'611.2
2018-Feb-16 06:29N 38°00' W 122°24'511.3
2018-Feb-16 06:00N 37°55' W 122°25'1 1.2
2018-Feb-16 05:30N 37°56' W 122°25'4 7.5
2018-Feb-16 05:00N 37°52' W 122°24'4 7.4
2018-Feb-16 04:30N 37°48' W 122°24'0 0.0
2018-Feb-16 04:00N 37°48' W 122°24'0 0.0
2018-Feb-16 03:30N 37°48' W 122°24'0 0.0
2018-Feb-16 03:00N 37°48' W 122°24'0 0.0
2018-Feb-16 02:30N 37°48' W 122°24'0 0.0
2018-Feb-16 02:00N 37°48' W 122°24'0 0.0
2018-Feb-16 01:30N 37°48' W 122°24'0 0.0
2018-Feb-16 01:00N 37°48' W 122°24'0 0.0
2018-Feb-16 00:30N 37°48' W 122°24'0 0.0
2018-Feb-16 00:00N 37°48' W 122°24'0 0.0
2018-Feb-15 23:30N 37°48' W 122°24'3 6.7
2018-Feb-15 23:00N 37°51' W 122°25'4 7.7
2018-Feb-15 22:30N 37°55' W 122°25'0 0.3
2018-Feb-15 22:00N 37°55' W 122°25'0 0.2
2018-Feb-15 21:30N 37°55' W 122°25'2 3.6
2018-Feb-15 21:00N 37°54' W 122°25'4 8.4
2018-Feb-15 20:30N 37°50' W 122°28'3 6.1
2018-Feb-15 20:00N 37°48' W 122°31'1 1.9
2018-Feb-15 19:30N 37°49' W 122°31'5 9.0
2018-Feb-15 19:00N 37°52' W 122°27'4 7.5
2018-Feb-15 18:29N 37°56' W 122°25'0 0.0
2018-Feb-15 18:00N 37°56' W 122°25'0 0.0
2018-Feb-15 17:30N 37°56' W 122°25'0 0.0
2018-Feb-15 17:00N 37°56' W 122°25'0 0.0
2018-Feb-15 16:30N 37°56' W 122°25'0 0.0
2018-Feb-15 16:00N 37°56' W 122°25'0 0.0
2018-Feb-15 15:30N 37°56' W 122°25'0 0.0
2018-Feb-15 15:00N 37°56' W 122°25'0 0.0
2018-Feb-15 14:30N 37°56' W 122°25'0 0.0
2018-Feb-15 14:00N 37°56' W 122°25'0 0.0
2018-Feb-15 13:30N 37°56' W 122°25'0 0.0
2018-Feb-15 13:00N 37°56' W 122°25'2 4.6
2018-Feb-15 12:30N 37°58' W 122°26'5 9.7
2018-Feb-15 12:00N 38°02' W 122°22'5 9.9
2018-Feb-15 11:30N 38°03' W 122°17'1 1.4
2018-Feb-15 11:00N 38°03' W 122°16'1 1.7
2018-Feb-15 10:29N 38°03' W 122°15'0 0.0
2018-Feb-15 09:52N 38°03' W 122°15'0 0.0
2018-Feb-15 09:30N 38°03' W 122°15'0 0.0
2018-Feb-15 08:43N 38°03' W 122°15'0 0.0
2018-Feb-15 08:30N 38°03' W 122°15'0 0.0
2018-Feb-15 08:00N 38°03' W 122°15'0 0.0
2018-Feb-15 07:30N 38°03' W 122°15'0 0.0
2018-Feb-15 06:59N 38°03' W 122°15'0 0.0
2018-Feb-15 06:29N 38°03' W 122°15'0 0.0
2018-Feb-15 06:00N 38°03' W 122°15'0 0.0
2018-Feb-15 03:10N 38°03' W 122°15'1 4.7
2018-Feb-15 03:00N 38°04' W 122°16'7 7.7
2018-Feb-15 02:02N 38°00' W 122°24'1 8.4
2018-Feb-15 01:57N 37°60' W 122°25'3 7.9
2018-Feb-15 01:31N 37°56' W 122°26'4 8.3
2018-Feb-15 01:00N 37°52' W 122°24'5 9.7
2018-Feb-15 00:30N 37°48' W 122°21'2 3.6
2018-Feb-15 00:00N 37°48' W 122°19'1 1.1
2018-Feb-14 23:31N 37°48' W 122°18'0 0.1
2018-Feb-14 23:00N 37°48' W 122°18'2 4.0
2018-Feb-14 22:30N 37°48' W 122°20'3 5.0
2018-Feb-14 22:00N 37°48' W 122°24'0 0.7
2018-Feb-14 21:30N 37°48' W 122°24'0 0.0
2018-Feb-14 21:00N 37°48' W 122°24'0 0.0
2018-Feb-14 20:30N 37°48' W 122°24'0 0.0
2018-Feb-14 20:00N 37°48' W 122°24'0 0.0
2018-Feb-14 19:30N 37°48' W 122°24'0 0.0
2018-Feb-14 19:00N 37°48' W 122°24'0 0.0
2018-Feb-14 18:30N 37°48' W 122°24'0 0.0
2018-Feb-14 18:00N 37°48' W 122°24'0 0.0
2018-Feb-14 17:30N 37°48' W 122°24'0 0.0
2018-Feb-14 17:00N 37°48' W 122°24'0 0.0
2018-Feb-14 16:30N 37°48' W 122°24'2 4.4
2018-Feb-14 16:00N 37°48' W 122°21'2 3.5
2018-Feb-14 15:31N 37°48' W 122°19'1 1.4
2018-Feb-14 15:00N 37°48' W 122°18'1 1.4
2018-Feb-14 14:30N 37°48' W 122°17'1 2.5
2018-Feb-14 14:00N 37°48' W 122°19'2 4.9
2018-Feb-14 13:30N 37°48' W 122°22'1 2.2
2018-Feb-14 13:00N 37°49' W 122°23'2 3.2
2018-Feb-14 12:30N 37°50' W 122°24'4 8.2
2018-Feb-14 12:00N 37°54' W 122°25'3 5.5
2018-Feb-14 11:30N 37°55' W 122°22'1 1.1
2018-Feb-14 11:00N 37°55' W 122°22'1 2.2
2018-Feb-14 10:30N 37°54' W 122°23'5 9.8
2018-Feb-14 10:00N 37°59' W 122°26'611.0
2018-Feb-14 09:30N 38°03' W 122°20'510.2
2018-Feb-14 09:00N 38°04' W 122°14'5 9.0
2018-Feb-14 08:29N 38°02' W 122°09'0 0.2
2018-Feb-14 06:25N 38°02' W 122°08'0 0.0
2018-Feb-14 04:26N 38°02' W 122°08'0 0.4
2018-Feb-14 03:47N 38°02' W 122°08'0 1.3
2018-Feb-14 03:24N 38°02' W 122°07'3 3.3
2018-Feb-14 02:37N 38°03' W 122°11'1 8.5
2018-Feb-14 02:30N 38°03' W 122°12'5 7.7
2018-Feb-14 01:53N 38°03' W 122°18'3 7.9
2018-Feb-14 01:27N 38°02' W 122°22'4 8.1
2018-Feb-14 01:00N 37°60' W 122°25'4 7.4
2018-Feb-14 00:31N 37°56' W 122°26'3 6.3
2018-Feb-14 00:01N 37°55' W 122°22'1 1.1
2018-Feb-13 23:30N 37°55' W 122°22'0 0.0
2018-Feb-13 23:00N 37°55' W 122°22'3 6.1
2018-Feb-13 22:30N 37°56' W 122°26'612.8
2018-Feb-13 22:00N 38°02' W 122°22'612.5
2018-Feb-13 21:29N 38°04' W 122°14'5 0.3
2018-Feb-13 05:13N 38°02' W 122°08'1 1.4
2018-Feb-13 04:12N 38°02' W 122°10'1 0.6
2018-Feb-13 02:34N 38°03' W 122°10'0 5.9
2018-Feb-13 02:30N 38°03' W 122°11'3 6.7
2018-Feb-13 02:00N 38°04' W 122°15'4 7.8
2018-Feb-13 01:29N 38°03' W 122°20'4 8.1
2018-Feb-13 01:00N 38°01' W 122°24'4 8.1
2018-Feb-13 00:30N 37°57' W 122°26'4 7.8
2018-Feb-13 00:00N 37°54' W 122°22'1 2.1
2018-Feb-12 23:30N 37°55' W 122°22'0 0.6
2018-Feb-12 23:01N 37°55' W 122°22'2 3.6
2018-Feb-12 22:31N 37°54' W 122°24'1 1.4
2018-Feb-12 22:01N 37°55' W 122°25'0 0.5
2018-Feb-12 21:30N 37°55' W 122°25'0 0.4
2018-Feb-12 21:00N 37°55' W 122°25'4 8.6
2018-Feb-12 20:31N 37°60' W 122°25'510.7
2018-Feb-12 20:00N 38°03' W 122°20'5 9.8
2018-Feb-12 19:30N 38°04' W 122°14'5 0.4
2018-Feb-12 06:09N 38°02' W 122°07'0 0.0
2018-Feb-12 06:00N 38°02' W 122°07'1 0.1
2018-Feb-11 18:00N 38°02' W 122°08'4 6.7
2018-Feb-11 17:23N 38°04' W 122°13'4 9.3
2018-Feb-11 16:58N 38°03' W 122°18'5 9.6
2018-Feb-11 16:25N 38°01' W 122°24'510.8
2018-Feb-11 15:57N 37°56' W 122°27'510.7
2018-Feb-11 15:30N 37°52' W 122°25'5 9.5
2018-Feb-11 15:00N 37°49' W 122°30'1 2.7
2018-Feb-11 14:28N 37°49' W 122°31'2 4.1
2018-Feb-11 14:00N 37°49' W 122°29'4 7.5
2018-Feb-11 13:31N 37°49' W 122°24'1 1.2
2018-Feb-11 13:00N 37°48' W 122°24'0 0.0
2018-Feb-11 12:30N 37°48' W 122°24'0 0.0
2018-Feb-11 12:00N 37°48' W 122°24'0 0.0
2018-Feb-11 11:30N 37°48' W 122°24'0 0.0
2018-Feb-11 11:00N 37°48' W 122°24'0 0.0
2018-Feb-11 10:30N 37°48' W 122°24'0 0.0
2018-Feb-11 10:00N 37°48' W 122°24'0 0.0
2018-Feb-11 09:30N 37°48' W 122°24'0 0.0
2018-Feb-11 09:00N 37°48' W 122°24'0 0.0
2018-Feb-11 08:30N 37°48' W 122°24'0 0.0
2018-Feb-11 08:00N 37°48' W 122°24'0 0.0
2018-Feb-11 07:30N 37°48' W 122°24'0 0.0
2018-Feb-11 07:00N 37°48' W 122°24'0 0.0
2018-Feb-11 06:30N 37°48' W 122°24'0 0.0
2018-Feb-11 06:00N 37°48' W 122°24'0 0.0
2018-Feb-11 05:30N 37°48' W 122°24'1 1.5
2018-Feb-11 05:00N 37°49' W 122°24'510.3
2018-Feb-11 04:30N 37°54' W 122°25'1 2.9
2018-Feb-11 04:00N 37°55' W 122°25'0 0.1
2018-Feb-11 03:30N 37°55' W 122°25'0 0.1
2018-Feb-11 02:40N 37°55' W 122°25'0 0.8
2018-Feb-11 02:30N 37°55' W 122°25'2 4.2
2018-Feb-11 02:00N 37°54' W 122°22'1 1.7
2018-Feb-11 01:30N 37°55' W 122°22'0 0.0
2018-Feb-11 01:00N 37°55' W 122°22'0 0.0
2018-Feb-11 00:30N 37°55' W 122°22'0 0.0
2018-Feb-11 00:00N 37°55' W 122°22'0 0.0
2018-Feb-10 23:30N 37°55' W 122°22'0 0.0
2018-Feb-10 23:00N 37°55' W 122°22'0 0.0
2018-Feb-10 22:29N 37°55' W 122°22'0 0.0
2018-Feb-10 22:00N 37°55' W 122°22'0 0.0
2018-Feb-10 21:29N 37°55' W 122°22'1 2.4
2018-Feb-10 21:00N 37°54' W 122°23'4 8.9
2018-Feb-10 20:30N 37°52' W 122°27'4 7.3
2018-Feb-10 20:00N 37°49' W 122°31'2 4.6
2018-Feb-10 19:30N 37°50' W 122°28'4 7.7
2018-Feb-10 19:00N 37°53' W 122°26'510.0
2018-Feb-10 18:28N 37°58' W 122°26'4 9.7
2018-Feb-10 18:00N 38°02' W 122°23'4 8.2
2018-Feb-10 17:30N 38°03' W 122°18'4 7.2
2018-Feb-10 17:00N 38°04' W 122°13'4 6.3
2018-Feb-10 16:24N 38°02' W 122°09'3 3.2
2018-Feb-10 15:24N 38°03' W 122°05'2 0.4
2018-Feb-10 09:36N 38°02' W 122°08'0 0.1
2018-Feb-10 09:29N 38°02' W 122°08'1 1.2
2018-Feb-10 09:00N 38°02' W 122°08'1 1.1
2018-Feb-10 08:30N 38°02' W 122°08'0 0.2
2018-Feb-10 07:31N 38°02' W 122°08'0 0.1
2018-Feb-10 07:28N 38°02' W 122°08'0 0.0
2018-Feb-10 06:20N 38°02' W 122°08'0 0.0
2018-Feb-10 05:59N 38°02' W 122°08'0 0.0
2018-Feb-10 05:28N 38°02' W 122°08'0 0.0
2018-Feb-10 04:50N 38°02' W 122°08'0 0.0
2018-Feb-10 04:25N 38°02' W 122°08'0 0.0
2018-Feb-10 03:26N 38°02' W 122°08'0 0.0
2018-Feb-10 02:42N 38°02' W 122°08'0 0.0
2018-Feb-10 02:30N 38°02' W 122°08'0 0.0
2018-Feb-10 00:43N 38°02' W 122°08'0 1.2
2018-Feb-10 00:30N 38°02' W 122°08'0 0.1
2018-Feb-09 21:00N 38°02' W 122°08'0 0.0
2018-Feb-09 20:30N 38°02' W 122°08'0 0.0
2018-Feb-09 20:00N 38°02' W 122°08'0 0.4
2018-Feb-09 19:00N 38°02' W 122°08'  

Dump ship's entire track history